Time;durP1;ratioP1;P1;durP2;ratioP2;P2;SDS_P1;SDS_P2;PMS_P1;PMS_P2;Temp;Humidity;BMP_temperature;BMP_pressure;BME280_temperature;BME280_humidity;BME280_pressure;Samples;Min_cycle;Max_cycle;Signal;HPM_P1;HPM_P2
2022/01/09 00:01:29;;;;;;;1.40;1.30;;;4.90;99.90;;;;;;4934554;29;20363;-89
2022/01/09 00:03:55;;;;;;;1.43;0.80;;;4.90;99.90;;;;;;4934212;29;20131;-88
2022/01/09 00:06:21;;;;;;;1.33;0.70;;;5.00;99.90;;;;;;4933470;29;20118;-89
2022/01/09 00:08:47;;;;;;;1.40;0.70;;;4.90;99.90;;;;;;4934211;29;20031;-88
2022/01/09 00:11:14;;;;;;;1.67;0.60;;;4.90;99.90;;;;;;4934305;29;20027;-88
2022/01/09 00:13:40;;;;;;;1.23;0.80;;;4.90;99.90;;;;;;4934692;29;20028;-89
2022/01/09 00:16:06;;;;;;;1.27;0.70;;;4.80;99.90;;;;;;4934018;29;20040;-88
2022/01/09 00:18:32;;;;;;;1.73;0.80;;;4.90;99.90;;;;;;4934028;29;20123;-89
2022/01/09 00:20:59;;;;;;;1.43;0.77;;;4.90;99.90;;;;;;4934232;29;20120;-89
2022/01/09 00:23:25;;;;;;;2.67;0.60;;;4.80;99.90;;;;;;4934018;29;20125;-90
2022/01/09 00:25:50;;;;;;;1.17;0.70;;;4.90;99.90;;;;;;4934077;29;20023;-92
2022/01/09 00:28:16;;;;;;;1.20;0.70;;;5.00;99.90;;;;;;4933905;29;20051;-89
2022/01/09 00:30:42;;;;;;;1.60;0.70;;;4.90;99.90;;;;;;4933881;29;20039;-89
2022/01/09 00:33:08;;;;;;;1.57;0.70;;;4.90;99.90;;;;;;4933819;29;20070;-89
2022/01/09 00:35:34;;;;;;;0.90;0.60;;;4.80;99.90;;;;;;4933797;29;20490;-89
2022/01/09 00:38:00;;;;;;;1.77;0.90;;;4.90;99.90;;;;;;4933900;29;20031;-89
2022/01/09 00:40:26;;;;;;;2.20;0.90;;;5.00;99.90;;;;;;4933690;29;20036;-89
2022/01/09 00:42:52;;;;;;;1.77;0.77;;;4.90;99.90;;;;;;4933816;29;20039;-89
2022/01/09 00:45:19;;;;;;;1.87;1.20;;;4.90;99.90;;;;;;4933930;29;20039;-89
2022/01/09 00:47:45;;;;;;;1.30;0.80;;;4.90;99.90;;;;;;4933947;29;20038;-89
2022/01/09 00:50:12;;;;;;;1.20;0.73;;;4.90;99.90;;;;;;4933954;29;20119;-88
2022/01/09 00:52:39;;;;;;;1.47;0.70;;;4.90;99.90;;;;;;4933600;29;20039;-90
2022/01/09 00:55:05;;;;;;;2.33;0.90;;;4.90;99.90;;;;;;4933809;29;20483;-89
2022/01/09 00:57:32;;;;;;;1.50;0.77;;;5.00;99.90;;;;;;4933920;29;20032;-89
2022/01/09 00:59:58;;;;;;;2.23;0.60;;;5.00;99.90;;;;;;4933804;29;20038;-89
2022/01/09 01:02:24;;;;;;;1.37;0.70;;;4.90;99.90;;;;;;4933693;29;20039;-89
2022/01/09 01:04:51;;;;;;;1.20;0.60;;;5.00;99.90;;;;;;4933615;29;20032;-90
2022/01/09 01:07:21;;;;;;;0.90;0.60;;;4.90;99.90;;;;;;4933686;29;20031;-89
2022/01/09 01:09:46;;;;;;;2.25;1.17;;;4.90;99.90;;;;;;4933434;29;20380;-89
2022/01/09 01:12:12;;;;;;;1.17;0.73;;;4.90;99.90;;;;;;4933673;29;20106;-89
2022/01/09 01:14:39;;;;;;;1.17;0.63;;;5.00;99.90;;;;;;4933660;29;20044;-89
2022/01/09 01:17:04;;;;;;;1.20;0.80;;;5.00;99.90;;;;;;4934387;29;20030;-89
2022/01/09 01:19:30;;;;;;;1.00;0.67;;;5.00;99.90;;;;;;4937316;29;20028;-89
2022/01/09 01:21:58;;;;;;;1.90;0.83;;;4.90;99.90;;;;;;4937378;29;20062;-88
2022/01/09 01:24:24;;;;;;;1.57;0.80;;;5.00;99.90;;;;;;4937186;29;20478;-89
2022/01/09 01:26:50;;;;;;;1.00;0.53;;;5.00;99.90;;;;;;4937105;29;20047;-89
2022/01/09 01:29:16;;;;;;;1.20;0.70;;;5.10;99.90;;;;;;4937011;29;20036;-89
2022/01/09 01:31:42;;;;;;;1.67;0.83;;;5.00;99.90;;;;;;4936962;29;20064;-89
2022/01/09 01:34:08;;;;;;;1.40;0.77;;;5.00;99.90;;;;;;4936986;29;20418;-89
2022/01/09 01:36:34;;;;;;;1.83;0.90;;;5.00;99.90;;;;;;4937162;29;20087;-88
2022/01/09 01:38:59;;;;;;;1.73;1.00;;;5.00;99.90;;;;;;4936867;29;20395;-89
2022/01/09 01:41:25;;;;;;;1.10;0.70;;;5.10;99.90;;;;;;4936962;29;20478;-89
2022/01/09 01:43:51;;;;;;;1.10;0.70;;;5.10;99.90;;;;;;4936989;29;20071;-89
2022/01/09 01:46:17;;;;;;;2.47;0.83;;;5.10;99.90;;;;;;4936814;29;20024;-90
2022/01/09 01:48:43;;;;;;;0.80;0.57;;;5.10;99.90;;;;;;4936798;29;20438;-89
2022/01/09 01:51:08;;;;;;;1.17;0.70;;;5.10;99.90;;;;;;4936702;29;20051;-89
2022/01/09 01:53:34;;;;;;;2.23;0.97;;;5.10;99.90;;;;;;4936872;29;20037;-89
2022/01/09 01:56:01;;;;;;;1.87;0.80;;;5.00;99.90;;;;;;4936528;29;20032;-89
2022/01/09 01:58:28;;;;;;;3.80;0.90;;;5.10;99.90;;;;;;4936629;29;20063;-88
2022/01/09 02:00:53;;;;;;;2.17;1.03;;;5.00;99.90;;;;;;4936482;29;20086;-90
2022/01/09 02:03:19;;;;;;;3.07;1.33;;;5.00;99.90;;;;;;4936437;29;20068;-90
2022/01/09 02:05:46;;;;;;;3.80;1.90;;;5.10;99.90;;;;;;4936323;29;20115;-91
2022/01/09 02:08:12;;;;;;;3.63;1.60;;;5.10;99.90;;;;;;4936736;29;20075;-89
2022/01/09 02:10:40;;;;;;;3.60;1.47;;;5.10;99.90;;;;;;4936401;29;20091;-89
2022/01/09 02:13:07;;;;;;;4.17;2.40;;;5.10;99.90;;;;;;4936291;29;20039;-90
2022/01/09 02:15:45;;;;;;;5.50;3.00;;;5.10;99.90;;;;;;4936459;29;20469;-89
2022/01/09 02:18:15;;;;;;;6.78;3.70;;;5.10;99.90;;;;;;4936792;29;20038;-89
2022/01/09 02:20:41;;;;;;;4.60;2.45;;;5.30;99.90;;;;;;4935992;29;20047;-89
2022/01/09 02:23:08;;;;;;;5.43;2.70;;;5.40;99.90;;;;;;4936117;29;20047;-89
2022/01/09 02:25:36;;;;;;;5.20;2.70;;;5.40;99.90;;;;;;4936262;29;20379;-91
2022/01/09 02:28:02;;;;;;;9.90;5.03;;;5.50;99.90;;;;;;4936165;29;20036;-89
2022/01/09 02:30:29;;;;;;;8.50;3.50;;;5.50;99.90;;;;;;4934910;29;20457;-89
2022/01/09 02:32:54;;;;;;;4.37;2.00;;;5.40;99.90;;;;;;4936021;29;20027;-89
2022/01/09 02:35:25;;;;;;;6.30;1.60;;;5.40;99.90;;;;;;4936004;29;20402;-92
2022/01/09 02:37:51;;;;;;;4.93;1.70;;;5.40;99.90;;;;;;4936057;29;20031;-89
2022/01/09 02:40:17;;;;;;;4.90;1.83;;;5.30;99.90;;;;;;4935767;29;20388;-89
2022/01/09 02:42:42;;;;;;;3.20;1.50;;;5.30;99.90;;;;;;4935867;29;20043;-91
2022/01/09 02:45:09;;;;;;;3.20;2.10;;;5.30;99.90;;;;;;4935866;29;20047;-88
2022/01/09 02:47:36;;;;;;;4.23;1.80;;;5.30;99.90;;;;;;4935696;29;20032;-90
2022/01/09 02:53:12;;;;;;;4.93;1.70;;;5.20;99.90;;;;;;4929913;29;20040;-89
2022/01/09 02:55:38;;;;;;;4.33;1.70;;;5.10;99.90;;;;;;4935641;29;20078;-89
2022/01/09 02:58:04;;;;;;;4.77;1.43;;;5.20;99.90;;;;;;4935606;29;20039;-89
2022/01/09 03:00:34;;;;;;;3.93;1.20;;;5.30;99.90;;;;;;4935705;29;20028;-89
2022/01/09 03:03:00;;;;;;;;;;;5.30;99.90;;;;;;4935903;29;20151;-89
2022/01/09 03:05:27;;;;;;;2.47;0.80;;;5.20;99.90;;;;;;4919664;29;20009;-89
2022/01/09 03:07:53;;;;;;;4.87;1.03;;;5.30;99.90;;;;;;4935528;29;20308;-88
2022/01/09 03:10:20;;;;;;;6.37;1.30;;;5.30;99.90;;;;;;4935491;29;20048;-89
2022/01/09 03:12:48;;;;;;;3.13;0.70;;;5.20;99.90;;;;;;4935410;29;20028;-89
2022/01/09 03:15:14;;;;;;;4.07;0.80;;;5.10;99.90;;;;;;4935322;29;20094;-89
2022/01/09 03:17:41;;;;;;;3.53;0.60;;;5.10;99.90;;;;;;4935183;29;20028;-89
2022/01/09 03:20:10;;;;;;;4.70;0.87;;;5.10;99.90;;;;;;4934934;29;20471;-88
2022/01/09 03:22:36;;;;;;;3.35;0.85;;;5.10;99.90;;;;;;4935110;29;20032;-88
2022/01/09 03:25:03;;;;;;;6.03;1.00;;;5.00;99.90;;;;;;4934996;29;20043;-88
2022/01/09 03:27:29;;;;;;;4.03;0.80;;;5.00;99.90;;;;;;4934941;29;20031;-88
2022/01/09 03:29:54;;;;;;;5.77;0.90;;;5.00;99.90;;;;;;4934655;29;20446;-89
2022/01/09 03:32:20;;;;;;;5.73;1.17;;;5.00;99.90;;;;;;4934941;29;20036;-89
2022/01/09 03:34:46;;;;;;;4.60;0.87;;;5.00;99.90;;;;;;4934665;29;20035;-89
2022/01/09 03:37:12;;;;;;;7.80;1.47;;;4.90;99.90;;;;;;4934811;29;20119;-89
2022/01/09 03:39:38;;;;;;;7.70;1.10;;;5.00;99.90;;;;;;4934536;29;20091;-89
2022/01/09 03:42:04;;;;;;;8.07;1.37;;;5.00;99.90;;;;;;4934430;29;20027;-89
2022/01/09 03:44:30;;;;;;;11.03;1.37;;;4.90;99.90;;;;;;4934759;29;20506;-89
2022/01/09 03:46:56;;;;;;;11.47;1.60;;;5.00;99.90;;;;;;4934643;29;20055;-89
2022/01/09 03:49:23;;;;;;;9.00;1.47;;;5.00;99.90;;;;;;4934642;29;20090;-89
2022/01/09 03:51:51;;;;;;;11.97;1.40;;;4.90;99.90;;;;;;4934427;29;20039;-90
2022/01/09 03:54:21;;;;;;;9.35;1.90;;;5.00;99.90;;;;;;4934734;29;20035;-89
2022/01/09 03:56:47;;;;;;;14.20;2.28;;;4.90;99.90;;;;;;4934309;29;20036;-90
2022/01/09 03:59:13;;;;;;;16.80;3.17;;;5.00;99.90;;;;;;4934361;29;20031;-89
2022/01/09 04:01:38;;;;;;;25.70;3.37;;;5.20;99.90;;;;;;4934285;29;20071;-88
2022/01/09 04:04:04;;;;;;;28.40;4.03;;;5.30;99.90;;;;;;4934335;29;20268;-88
2022/01/09 04:06:30;;;;;;;27.47;3.83;;;5.50;99.90;;;;;;4934637;29;20028;-89
2022/01/09 04:08:58;;;;;;;22.40;3.37;;;5.50;99.90;;;;;;4934166;29;20443;-89
2022/01/09 04:11:28;;;;;;;22.37;3.33;;;5.50;99.90;;;;;;4934218;29;20031;-89
2022/01/09 04:13:54;;;;;;;26.10;3.33;;;5.60;99.90;;;;;;4934258;29;20051;-89
2022/01/09 04:16:20;;;;;;;20.03;2.90;;;5.70;99.90;;;;;;4934100;29;20027;-89
2022/01/09 04:18:46;;;;;;;14.70;2.63;;;5.60;99.90;;;;;;4933953;29;20570;-89
2022/01/09 04:21:12;;;;;;;20.63;2.90;;;5.70;99.90;;;;;;4934008;29;20502;-89
2022/01/09 04:23:38;;;;;;;24.23;3.33;;;5.70;99.90;;;;;;4934133;29;20035;-89
2022/01/09 04:26:04;;;;;;;27.43;4.07;;;5.70;99.90;;;;;;4934048;29;20511;-89
2022/01/09 04:28:29;;;;;;;32.63;4.20;;;5.70;99.90;;;;;;4933888;29;20078;-89
2022/01/09 04:30:55;;;;;;;31.30;4.60;;;5.80;99.90;;;;;;4933925;29;20086;-88
2022/01/09 04:33:21;;;;;;;35.97;5.23;;;5.80;99.90;;;;;;4935769;29;20392;-89
2022/01/09 04:35:47;;;;;;;33.43;6.57;;;5.80;99.90;;;;;;4936013;29;20032;-89
2022/01/09 04:38:13;;;;;;;26.50;5.57;;;5.80;99.90;;;;;;4936853;29;20042;-89
2022/01/09 04:40:38;;;;;;;29.33;4.70;;;5.80;99.90;;;;;;4934855;29;20024;-89
2022/01/09 04:43:05;;;;;;;29.33;5.00;;;5.80;99.90;;;;;;4933952;29;20035;-89
2022/01/09 04:45:31;;;;;;;27.03;3.60;;;5.70;99.90;;;;;;4934074;29;20033;-89
2022/01/09 04:48:04;;;;;;;34.13;4.43;;;5.80;99.90;;;;;;4933862;29;20403;-89
2022/01/09 04:50:33;;;;;;;35.17;5.27;;;5.70;99.90;;;;;;4933793;29;20062;-91
2022/01/09 04:53:05;;;;;;;29.53;4.43;;;5.60;99.90;;;;;;4938198;29;20439;-89
2022/01/09 04:55:33;;;;;;;41.40;5.10;;;5.60;99.90;;;;;;4940048;29;20039;-89
2022/01/09 04:57:59;;;;;;;27.87;4.37;;;5.70;99.90;;;;;;4939993;29;20028;-89
2022/01/09 05:00:25;;;;;;;29.53;4.90;;;5.70;99.90;;;;;;4940386;29;20027;-89
2022/01/09 05:02:51;;;;;;;48.13;9.50;;;5.70;99.90;;;;;;4940173;29;20035;-90
2022/01/09 05:05:17;;;;;;;54.00;11.40;;;5.70;99.90;;;;;;4940379;29;20036;-89
2022/01/09 05:07:44;;;;;;;42.77;8.87;;;5.70;99.90;;;;;;4940819;29;20529;-89
2022/01/09 05:10:10;;;;;;;48.67;8.87;;;5.70;99.90;;;;;;4940067;29;20027;-89
2022/01/09 05:12:37;;;;;;;34.03;5.37;;;5.80;99.90;;;;;;4940162;29;20043;-89
2022/01/09 05:15:04;;;;;;;28.70;4.47;;;5.70;99.90;;;;;;4939666;29;20082;-89
2022/01/09 05:17:31;;;;;;;32.27;4.60;;;5.90;99.90;;;;;;4939868;29;20042;-90
2022/01/09 05:19:57;;;;;;;26.40;5.10;;;5.90;99.90;;;;;;4939715;29;20209;-89
2022/01/09 05:22:28;;;;;;;27.03;5.10;;;5.80;99.90;;;;;;4939668;29;20024;-89
2022/01/09 05:24:54;;;;;;;29.53;5.73;;;5.90;99.90;;;;;;4939781;29;20043;-89
2022/01/09 05:27:22;;;;;;;29.27;5.37;;;5.90;99.90;;;;;;4939726;29;20042;-90
2022/01/09 05:29:47;;;;;;;36.63;5.07;;;5.90;99.90;;;;;;4966645;23;20036;-88
2022/01/09 05:32:13;;;;;;;20.53;3.30;;;5.80;99.90;;;;;;4939778;29;20030;-87
2022/01/09 05:34:39;;;;;;;21.93;3.60;;;5.80;99.90;;;;;;4939861;29;20490;-88
2022/01/09 05:37:05;;;;;;;24.00;4.33;;;5.90;99.90;;;;;;4939788;29;20414;-88
2022/01/09 05:39:32;;;;;;;22.50;3.80;;;5.80;99.90;;;;;;4937121;29;20028;-89
2022/01/09 05:41:59;;;;;;;18.57;3.20;;;5.80;99.90;;;;;;4936927;29;20028;-88
2022/01/09 05:44:25;;;;;;;24.93;4.03;;;5.80;99.90;;;;;;4936436;29;20028;-88
2022/01/09 05:46:51;;;;;;;28.67;4.43;;;5.80;99.90;;;;;;4936559;29;20034;-88
2022/01/09 05:49:17;;;;;;;25.87;3.93;;;5.80;99.90;;;;;;4936072;29;20040;-88
2022/01/09 05:51:42;;;;;;;25.73;4.07;;;5.80;99.90;;;;;;4936268;29;20091;-88
2022/01/09 05:54:08;;;;;;;23.13;3.50;;;5.80;99.90;;;;;;4936119;29;20044;-88
2022/01/09 05:56:34;;;;;;;18.87;3.23;;;5.80;99.90;;;;;;4936507;29;20243;-88
2022/01/09 05:59:00;;;;;;;22.30;3.07;;;5.80;99.90;;;;;;4935856;29;20028;-88
2022/01/09 06:01:26;;;;;;;19.13;3.27;;;5.80;99.90;;;;;;4921595;29;20442;-88
2022/01/09 06:03:52;;;;;;;25.77;4.13;;;5.80;99.90;;;;;;4934873;29;20115;-88
2022/01/09 06:06:18;;;;;;;20.87;4.27;;;5.80;99.90;;;;;;4933649;29;20035;-88
2022/01/09 06:08:44;;;;;;;26.87;3.83;;;5.70;99.90;;;;;;4918101;29;20098;-88
2022/01/09 06:11:10;;;;;;;20.97;3.77;;;5.80;99.90;;;;;;4933031;29;20513;-88
2022/01/09 06:13:35;;;;;;;21.43;2.97;;;5.80;99.90;;;;;;4917436;29;20032;-88
2022/01/09 06:16:03;;;;;;;18.57;2.70;;;5.80;99.90;;;;;;4917433;29;20140;-88
2022/01/09 06:18:29;;;;;;;22.93;3.13;;;5.70;99.90;;;;;;4932617;29;20028;-88
2022/01/09 06:20:55;;;;;;;18.20;2.50;;;5.70;99.90;;;;;;4933197;29;20032;-88
2022/01/09 06:23:21;;;;;;;15.50;2.47;;;5.80;99.90;;;;;;4933017;29;20466;-88
2022/01/09 06:25:51;;;;;;;19.37;2.67;;;5.80;99.90;;;;;;4933299;29;20032;-88
2022/01/09 06:28:17;;;;;;;20.93;3.30;;;5.70;99.90;;;;;;4932495;29;20039;-88
2022/01/09 06:30:44;;;;;;;21.17;2.93;;;5.70;99.90;;;;;;4932557;29;20435;-88
2022/01/09 06:33:11;;;;;;;15.67;2.33;;;5.70;99.90;;;;;;4932858;29;20028;-88
2022/01/09 06:35:37;;;;;;;13.83;2.50;;;5.70;99.90;;;;;;4932827;29;20047;-88
2022/01/09 06:38:03;;;;;;;14.10;2.50;;;5.70;99.90;;;;;;4932701;29;20440;-88
2022/01/09 06:40:30;;;;;;;15.47;2.47;;;5.70;99.90;;;;;;4932702;29;20391;-88
2022/01/09 06:42:55;;;;;;;15.67;3.20;;;5.70;99.90;;;;;;4933065;29;20443;-88
2022/01/09 06:45:24;;;;;;;18.27;2.70;;;5.70;99.90;;;;;;4932642;29;20043;-88
2022/01/09 06:47:59;;;;;;;16.70;2.75;;;5.70;99.90;;;;;;4932805;29;20055;-88
2022/01/09 06:50:26;;;;;;;15.07;2.63;;;5.60;99.90;;;;;;4932340;29;20043;-89
2022/01/09 06:52:53;;;;;;;19.40;2.83;;;5.60;99.90;;;;;;4917830;29;20028;-88
2022/01/09 06:55:19;;;;;;;16.47;2.47;;;5.50;99.90;;;;;;4932405;29;20032;-88
2022/01/09 06:57:45;;;;;;;15.13;2.40;;;5.60;99.90;;;;;;4916210;29;20036;-88
2022/01/09 07:00:13;;;;;;;16.00;2.60;;;5.60;99.90;;;;;;4932339;29;20043;-88
2022/01/09 07:02:39;;;;;;;15.13;2.30;;;5.60;99.90;;;;;;4932272;29;20055;-88
2022/01/09 07:05:05;;;;;;;14.20;2.93;;;5.60;99.90;;;;;;4932312;29;20344;-88
2022/01/09 07:07:31;;;;;;;16.70;2.37;;;5.60;99.90;;;;;;4917570;29;20201;-88
2022/01/09 07:09:58;;;;;;;13.13;2.47;;;5.60;99.90;;;;;;4916307;29;20543;-88
2022/01/09 07:12:24;;;;;;;12.83;3.17;;;5.70;99.90;;;;;;4916213;29;20047;-88
2022/01/09 07:14:49;;;;;;;15.90;2.83;;;5.60;99.90;;;;;;4931768;29;20028;-88
2022/01/09 07:17:15;;;;;;;16.70;2.67;;;5.50;99.90;;;;;;4932132;29;20538;-88
2022/01/09 07:19:41;;;;;;;13.57;2.53;;;5.50;99.90;;;;;;4931894;29;20038;-88
2022/01/09 07:22:06;;;;;;;17.03;2.40;;;5.50;99.90;;;;;;4931834;29;20123;-88
2022/01/09 07:24:33;;;;;;;23.50;2.80;;;5.50;99.90;;;;;;4931967;29;20054;-88
2022/01/09 07:26:58;;;;;;;17.37;2.63;;;5.50;99.90;;;;;;4931871;29;20080;-88
2022/01/09 07:29:25;;;;;;;17.27;2.83;;;5.50;99.90;;;;;;4931445;29;20430;-88
2022/01/09 07:31:51;;;;;;;15.20;2.47;;;5.50;99.90;;;;;;4931746;29;20028;-88
2022/01/09 07:34:18;;;;;;;15.77;2.53;;;5.50;99.90;;;;;;4931718;29;20145;-88
2022/01/09 07:36:44;;;;;;;18.33;2.43;;;5.60;99.90;;;;;;4917280;29;20028;-88
2022/01/09 07:39:10;;;;;;;10.33;2.07;;;5.50;99.90;;;;;;4915515;29;20032;-88
2022/01/09 07:41:36;;;;;;;13.63;2.60;;;5.60;99.90;;;;;;4931678;29;20083;-89
2022/01/09 07:44:02;;;;;;;15.20;2.30;;;5.50;99.90;;;;;;4931590;29;20534;-88
2022/01/09 07:46:28;;;;;;;13.33;2.33;;;5.50;99.90;;;;;;4931582;29;20036;-88
2022/01/09 07:48:53;;;;;;;13.47;1.97;;;5.50;99.90;;;;;;4931226;29;20040;-88
2022/01/09 07:51:19;;;;;;;15.83;2.70;;;5.50;99.90;;;;;;4931092;29;20035;-88
2022/01/09 07:53:45;;;;;;;15.37;2.27;;;5.60;99.90;;;;;;4931485;29;20051;-88
2022/01/09 07:56:11;;;;;;;17.83;2.63;;;5.50;99.90;;;;;;4915974;29;20480;-89
2022/01/09 07:58:36;;;;;;;14.00;3.30;;;5.50;99.90;;;;;;4931419;29;20036;-88
2022/01/09 08:01:02;;;;;;;13.87;2.70;;;5.50;99.90;;;;;;4915569;29;20028;-88
2022/01/09 08:03:28;;;;;;;13.87;2.63;;;5.50;99.90;;;;;;4915790;29;20119;-88
2022/01/09 08:05:54;;;;;;;15.10;3.20;;;5.50;99.90;;;;;;4931416;29;20036;-89
2022/01/09 08:08:20;;;;;;;17.40;3.87;;;5.50;99.90;;;;;;4930794;29;20032;-89
2022/01/09 08:10:46;;;;;;;19.03;2.80;;;5.50;99.90;;;;;;4915311;29;20107;-89
2022/01/09 08:13:11;;;;;;;14.57;2.80;;;5.50;99.90;;;;;;4916516;29;20036;-89
2022/01/09 08:15:37;;;;;;;15.10;2.60;;;5.40;99.90;;;;;;4930939;29;20088;-89
2022/01/09 08:18:03;;;;;;;18.23;2.70;;;5.50;99.90;;;;;;4915902;29;20059;-88
2022/01/09 08:20:29;;;;;;;21.10;3.40;;;5.40;99.90;;;;;;4931043;29;20123;-88
2022/01/09 08:22:55;;;;;;;20.70;2.73;;;5.40;99.90;;;;;;4930913;29;20032;-88
2022/01/09 08:25:21;;;;;;;14.17;2.97;;;5.50;99.90;;;;;;4915143;29;20479;-88
2022/01/09 08:27:47;;;;;;;13.93;2.30;;;5.50;99.90;;;;;;4929667;29;20076;-89
2022/01/09 08:30:18;;;;;;;12.50;2.23;;;5.50;99.90;;;;;;4931155;29;20411;-88
2022/01/09 08:32:44;;;;;;;17.27;2.53;;;5.40;99.90;;;;;;4931783;29;20090;-88
2022/01/09 08:35:11;;;;;;;17.20;2.40;;;5.40;99.90;;;;;;4931331;29;20028;-88
2022/01/09 08:37:37;;;;;;;13.43;2.23;;;5.40;99.90;;;;;;4930367;29;20087;-88
2022/01/09 08:40:03;;;;;;;10.70;2.40;;;5.40;99.90;;;;;;4930715;29;20024;-89
2022/01/09 08:42:29;;;;;;;13.53;2.80;;;5.40;99.90;;;;;;4930882;29;20059;-88
2022/01/09 08:44:55;;;;;;;9.67;2.17;;;5.50;99.90;;;;;;4930596;29;20032;-89
2022/01/09 08:47:23;;;;;;;11.17;2.00;;;5.40;99.90;;;;;;4930685;29;20040;-89
2022/01/09 08:49:49;;;;;;;12.53;2.53;;;5.40;99.90;;;;;;4914277;29;20032;-89
2022/01/09 08:52:15;;;;;;;15.47;3.17;;;5.40;99.90;;;;;;4914765;29;20032;-89
2022/01/09 08:54:41;;;;;;;16.70;2.20;;;5.40;99.90;;;;;;4930392;29;20395;-89
2022/01/09 08:57:07;;;;;;;11.13;2.13;;;5.40;99.90;;;;;;4930718;29;20028;-89
2022/01/09 08:59:33;;;;;;;9.63;2.67;;;5.40;99.90;;;;;;4930018;29;20024;-88
2022/01/09 09:01:59;;;;;;;13.50;2.20;;;5.40;99.90;;;;;;4930609;29;20087;-89
2022/01/09 09:04:25;;;;;;;10.57;1.93;;;5.40;99.90;;;;;;4930532;29;20036;-88
2022/01/09 09:06:51;;;;;;;10.40;2.37;;;5.40;99.90;;;;;;4930650;29;20483;-89
2022/01/09 09:09:17;;;;;;;15.90;2.57;;;5.40;99.90;;;;;;4914139;29;20067;-88
2022/01/09 09:11:43;;;;;;;14.77;2.50;;;5.40;99.90;;;;;;4930168;29;20119;-89
2022/01/09 09:14:09;;;;;;;16.23;2.43;;;5.40;99.90;;;;;;4930272;29;20058;-89
2022/01/09 09:16:34;;;;;;;12.70;2.53;;;5.50;99.90;;;;;;4930960;29;20051;-88
2022/01/09 09:19:00;;;;;;;14.00;2.80;;;5.50;99.90;;;;;;4930209;29;20064;-88
2022/01/09 09:21:26;;;;;;;14.87;2.63;;;5.50;99.90;;;;;;4914942;29;20055;-88
2022/01/09 09:23:52;;;;;;;12.50;2.43;;;5.60;99.90;;;;;;4915179;29;20036;-87
2022/01/09 09:26:17;;;;;;;14.07;2.60;;;5.60;99.90;;;;;;4914799;29;20047;-89
2022/01/09 09:28:44;;;;;;;10.70;2.30;;;5.60;99.90;;;;;;4929998;29;20032;-89
2022/01/09 09:31:10;;;;;;;18.50;2.40;;;5.60;99.90;;;;;;4915447;29;20115;-89
2022/01/09 09:33:36;;;;;;;11.40;2.13;;;5.70;99.90;;;;;;4930271;29;20028;-89
2022/01/09 09:36:03;;;;;;;10.50;1.80;;;5.70;99.90;;;;;;4930085;29;20043;-88
2022/01/09 09:38:32;;;;;;;15.80;2.53;;;5.70;99.90;;;;;;4930859;29;20038;-88
2022/01/09 09:40:58;;;;;;;12.30;2.40;;;5.70;99.90;;;;;;4933855;29;20024;-88
2022/01/09 09:43:24;;;;;;;11.93;2.10;;;5.60;99.90;;;;;;4933728;29;20137;-88
2022/01/09 09:45:51;;;;;;;16.00;2.70;;;5.60;99.90;;;;;;4934030;29;20036;-88
2022/01/09 09:48:17;;;;;;;11.03;2.53;;;5.60;99.90;;;;;;4917445;29;20035;-89
2022/01/09 09:50:43;;;;;;;11.67;2.40;;;5.60;99.90;;;;;;4933919;29;20028;-89
2022/01/09 09:53:09;;;;;;;11.73;2.40;;;5.60;99.90;;;;;;4933710;29;20087;-89
2022/01/09 09:55:35;;;;;;;13.40;2.67;;;5.60;99.90;;;;;;4917938;29;20131;-89
2022/01/09 09:58:00;;;;;;;15.13;3.17;;;5.60;99.90;;;;;;4934175;29;20455;-89
2022/01/09 10:00:26;;;;;;;12.63;2.47;;;5.60;99.90;;;;;;4918164;29;20032;-88
2022/01/09 10:02:59;;;;;;;12.90;2.63;;;5.60;99.90;;;;;;4917920;29;20036;-89
2022/01/09 10:05:27;;;;;;;13.53;3.00;;;5.60;99.90;;;;;;4934591;29;20032;-88
2022/01/09 10:07:55;;;;;;;22.30;3.63;;;5.70;99.90;;;;;;4933598;29;20036;-88
2022/01/09 10:10:29;;;;;;;15.57;3.23;;;5.70;99.90;;;;;;4933569;29;20160;-89
2022/01/09 10:13:11;;;;;;;12.53;3.10;;;5.80;99.90;;;;;;4933462;29;20047;-88
2022/01/09 10:15:47;;;;;;;8.73;2.40;;;5.70;99.90;;;;;;4917521;29;20032;-88
2022/01/09 10:18:13;;;;;;;13.97;2.30;;;5.70;99.90;;;;;;4932744;29;20032;-89
2022/01/09 10:20:39;;;;;;;13.83;2.43;;;5.70;99.90;;;;;;4932892;29;20145;-89
2022/01/09 10:23:04;;;;;;;12.87;3.00;;;5.80;99.90;;;;;;4933482;29;20576;-89
2022/01/09 10:25:32;;;;;;;12.17;2.73;;;5.80;99.90;;;;;;4933233;29;20036;-88
2022/01/09 10:27:59;;;;;;;9.23;2.77;;;5.80;99.90;;;;;;4932679;29;20510;-89
2022/01/09 10:30:32;;;;;;;10.67;2.63;;;5.80;99.90;;;;;;4932940;29;20065;-89
2022/01/09 10:33:01;;;;;;;13.37;2.70;;;5.80;99.90;;;;;;4932782;29;20040;-89
2022/01/09 10:35:29;;;;;;;11.37;2.73;;;5.80;99.90;;;;;;4932725;29;20048;-89
2022/01/09 10:38:27;;;;;;;12.77;2.73;;;5.80;99.90;;;;;;4916734;29;20045;-88
2022/01/09 10:41:03;;;;;;;13.87;3.23;;;5.80;99.90;;;;;;4888904;29;20099;-89
2022/01/09 10:43:41;;;;;;;15.20;3.60;;;5.90;99.90;;;;;;4932881;29;20402;-89
2022/01/09 10:46:08;;;;;;;16.37;3.30;;;5.80;99.90;;;;;;4932840;29;20032;-89
2022/01/09 10:48:36;;;;;;;13.23;3.10;;;5.90;99.90;;;;;;4932253;29;20034;-89
2022/01/09 10:51:04;;;;;;;10.83;3.00;;;5.90;99.90;;;;;;4931551;29;20043;-88
2022/01/09 10:53:32;;;;;;;10.17;3.10;;;5.90;99.90;;;;;;4932572;29;20127;-88
2022/01/09 10:56:20;;;;;;;18.10;4.33;;;5.90;99.90;;;;;;4932798;29;20067;-89
2022/01/09 10:58:51;;;;;;;11.43;3.28;;;5.90;99.90;;;;;;4932272;29;20047;-89
2022/01/09 11:01:27;;;;;;;17.07;4.80;;;5.80;99.90;;;;;;4932576;29;20097;-89
2022/01/09 11:04:06;;;;;;;19.73;5.83;;;5.80;99.90;;;;;;4916630;29;20518;-89
2022/01/09 11:06:34;;;;;;;18.38;4.95;;;5.80;99.90;;;;;;4932369;29;20153;-89
2022/01/09 11:09:02;;;;;;;18.33;5.03;;;5.80;99.90;;;;;;4931959;29;20051;-89
2022/01/09 11:11:34;;;;;;;20.10;4.93;;;5.80;99.90;;;;;;4932283;29;20036;-88
2022/01/09 11:14:03;;;;;;;14.57;3.50;;;5.80;99.90;;;;;;4932394;29;20044;-89
2022/01/09 11:16:34;;;;;;;17.10;4.68;;;5.80;99.90;;;;;;4932503;29;20051;-89
2022/01/09 11:19:02;;;;;;;12.53;3.80;;;5.80;99.90;;;;;;4931833;29;20032;-89
2022/01/09 11:21:29;;;;;;;18.80;3.97;;;5.90;99.90;;;;;;4932108;29;20024;-88
2022/01/09 11:24:22;;;;;;;13.67;3.70;;;5.90;99.90;;;;;;4932314;29;20036;-88
2022/01/09 11:26:53;;;;;;;11.00;3.03;;;6.00;99.90;;;;;;4932275;29;20127;-87
2022/01/09 11:29:43;;;;;;;13.27;3.30;;;6.10;99.90;;;;;;4931789;29;20496;-87
2022/01/09 11:32:31;;;;;;;14.03;2.63;;;6.00;99.90;;;;;;4931954;29;20456;-88
2022/01/09 11:35:39;;;;;;;9.30;2.77;;;6.00;99.90;;;;;;4931995;29;20032;-88
2022/01/09 11:38:15;;;;;;;12.97;3.17;;;6.10;99.90;;;;;;4899699;29;20063;-88
2022/01/09 11:40:40;;;;;;;13.97;4.17;;;6.00;99.90;;;;;;4931710;29;20028;-88
2022/01/09 11:43:14;;;;;;;11.33;2.80;;;6.10;99.90;;;;;;4931607;29;20091;-89
2022/01/09 11:45:46;;;;;;;14.20;3.37;;;6.10;99.90;;;;;;4916012;29;20036;-89
2022/01/09 11:48:13;;;;;;;12.27;3.43;;;6.10;99.90;;;;;;4931064;29;20042;-89
2022/01/09 11:51:07;;;;;;;12.73;3.27;;;6.10;99.90;;;;;;4931432;29;20491;-89
2022/01/09 11:54:01;;;;;;;15.40;3.83;;;6.10;99.90;;;;;;4931468;29;20040;-89
2022/01/09 11:56:43;;;;;;;12.27;4.50;;;6.10;99.90;;;;;;4931771;29;20046;-89
2022/01/09 11:59:24;;;;;;;17.37;3.70;;;6.20;99.90;;;;;;4930752;29;20032;-89
2022/01/09 12:02:11;;;;;;;15.90;3.77;;;6.10;99.90;;;;;;4931160;29;20467;-89
2022/01/09 12:04:43;;;;;;;14.90;4.33;;;6.20;99.90;;;;;;4890007;29;20048;-89
2022/01/09 12:07:11;;;;;;;10.30;3.60;;;6.20;99.90;;;;;;4931441;29;20035;-89
2022/01/09 12:09:48;;;;;;;11.73;3.53;;;6.10;99.90;;;;;;4930708;29;20032;-89
2022/01/09 12:12:42;;;;;;;9.07;3.73;;;6.20;99.90;;;;;;4931103;29;20035;-88
2022/01/09 12:15:09;;;;;;;13.00;3.90;;;6.10;99.90;;;;;;4883462;29;20044;-89
2022/01/09 12:17:56;;;;;;;14.63;3.73;;;6.10;99.90;;;;;;4930491;29;20032;-89
2022/01/09 12:20:28;;;;;;;14.50;3.83;;;6.10;99.90;;;;;;4931128;29;20043;-89
2022/01/09 12:23:04;;;;;;;13.50;3.60;;;6.10;99.90;;;;;;4930881;29;20491;-89
2022/01/09 12:25:33;;;;;;;11.70;3.60;;;6.20;99.90;;;;;;4931050;29;20040;-88
2022/01/09 12:28:19;;;;;;;11.73;3.72;;;6.20;99.90;;;;;;4930602;29;20024;-88
2022/01/09 12:30:50;;;;;;;12.60;4.47;;;6.20;99.90;;;;;;4930924;29;20114;-89
2022/01/09 12:33:21;;;;;;;13.73;4.13;;;6.20;99.90;;;;;;4930618;29;20043;-89
2022/01/09 12:36:14;;;;;;;12.90;3.83;;;6.20;99.90;;;;;;4930625;29;20178;-88
2022/01/09 12:38:50;;;;;;;15.33;4.50;;;6.20;99.90;;;;;;4930279;29;20115;-88
2022/01/09 12:41:21;;;;;;;11.57;3.53;;;6.20;99.90;;;;;;4930652;29;20039;-88
2022/01/09 12:43:49;;;;;;;13.53;3.90;;;6.10;99.90;;;;;;4931062;29;20032;-88
2022/01/09 12:46:21;;;;;;;13.93;5.00;;;6.20;99.90;;;;;;4930996;29;20400;-88
2022/01/09 12:48:55;;;;;;;12.20;4.33;;;6.10;99.90;;;;;;4914842;29;20411;-88
2022/01/09 12:51:22;;;;;;;9.07;3.83;;;6.10;99.90;;;;;;4930719;29;20036;-87
2022/01/09 12:53:53;;;;;;;11.70;4.37;;;6.10;99.90;;;;;;4930838;29;20107;-88
2022/01/09 12:56:39;;;;;;;9.03;3.90;;;6.10;99.90;;;;;;4930525;29;20040;-88
2022/01/09 12:59:11;;;;;;;14.43;4.80;;;6.20;99.90;;;;;;4914658;29;20394;-88